Alize — WDF3880 — position and weather

sailwx.info

Track history (hours):
 
Tides and Currents Weather Stations Pressure Air Temp Water Temp Dewpoint Dewpoint Depression Visibility Wind Speed Wind Dir Waves Ship Positions

Alize

Owner: Frazee, John M, Norfolk, VA. More information available from US FCC via Universal Licensing System and Coast Guard Vessel Documentation Center.

Last reported at 2017-Apr-25 21:57 UTC. Time now 2017-Apr-25 22:19 UTC.
Position N 26°08' W 080°06'.

Length 14 m.

Type: Sailing vessel. MMSI: 367445110.

Date/timePositionNaut miles runAvg speedWind from/ knotsBaromVisibWave heightAir tempDewpointWater temp
2017-Apr-25 21:57N 26°08' W 080°06'3 6.1
2017-Apr-25 21:30N 26°11' W 080°05'4 5.9
2017-Apr-25 20:45N 26°15' W 080°03'1 1.2
2017-Apr-25 19:29N 26°14' W 080°02'1 2.9
2017-Apr-25 19:00N 26°12' W 080°03'2 4.4
2017-Apr-25 18:30N 26°10' W 080°04'2 4.1
2017-Apr-25 18:00N 26°08' W 080°04'2 3.7
2017-Apr-25 17:30N 26°06' W 080°05'2 3.8
2017-Apr-25 16:59N 26°06' W 080°07'1 1.5
2017-Apr-25 16:25N 26°07' W 080°07'  
2017-Apr-22 16:13N 26°07' W 080°07'  
Track history (hours):
 
Tides and Currents Weather Stations Pressure Air Temp Water Temp Dewpoint Dewpoint Depression Visibility Wind Speed Wind Dir Waves Ship Positions

Alize

Owner: Frazee, John M, Norfolk, VA. More information available from US FCC via Universal Licensing System and Coast Guard Vessel Documentation Center.

Last reported at 2017-Apr-25 21:57 UTC. Time now 2017-Apr-25 22:19 UTC.
Position N 26°08' W 080°06'.

Length 14 m.

Type: Sailing vessel. MMSI: 367445110.

Date/timePositionNaut miles runAvg speedWind from/ knotsBaromVisibWave heightAir tempDewpointWater temp
2017-Apr-25 21:57N 26°08' W 080°06'3 6.1
2017-Apr-25 21:30N 26°11' W 080°05'4 5.9
2017-Apr-25 20:45N 26°15' W 080°03'1 1.2
2017-Apr-25 19:29N 26°14' W 080°02'1 2.9
2017-Apr-25 19:00N 26°12' W 080°03'2 4.4
2017-Apr-25 18:30N 26°10' W 080°04'2 4.1
2017-Apr-25 18:00N 26°08' W 080°04'2 3.7
2017-Apr-25 17:30N 26°06' W 080°05'2 3.8
2017-Apr-25 16:59N 26°06' W 080°07'1 1.5
2017-Apr-25 16:25N 26°07' W 080°07'  
2017-Apr-22 16:13N 26°07' W 080°07'  

Dump ship's entire track history